Urbana, OH (43078)

12:45 PM EDT on September 27, 2016 (GMT -0400)
Sonander Road | | Change Station

Elev 1108 ft 40.18 °N, 83.75 °W | Updated 7 minutes ago

Clear
Clear
72.1 °F
Feels Like 77 °F
N
6.2
Wind Variable Wind from WSW
Gusts 11.2 mph

Today
High -- | Low -- °F
--% Chance of Precip.
Yesterday
High -- | Low -- °F
Precip. -- in
Pressure 29.89 in
Visibility 10.0 miles
Clouds Clear
Heat Index 77 °F
Dew Point 49 °F
Humidity 44%
Rainfall 0.00 in
Snow Depth Not available.
7:27 AM 7:23 PM
Waning Crescent, 10% visible
METAR KEDJ 271625Z AUTO 24019G26KT 10SM CLR 20/03 A2989 RMK AO1
Pressure 29.89 in
Visibility 10.0 miles
Clouds Clear
Heat Index 77 °F
Dew Point 49 °F
Humidity 44%
Rainfall 0.00 in
Snow Depth Not available.
7:27 AM 7:23 PM
Waning Crescent, 10% visible
METAR KEDJ 271625Z AUTO 24019G26KT 10SM CLR 20/03 A2989 RMK AO1

10-Day Weather Forecast

Almanac

Astronomy

Sep. 27, 2016 Rise Set
Actual Time
Civil Twilight
Nautical Twilight
Astronomical Twilight
Moon
Length of Visible Light
Length of Day
Tomorrow will be .
, % of the Moon is Illuminated

Today's Extremes

State Highs State Lows

Community

WunderPhotos

Upload Photos

1,942,128 photos uploaded!

WunderBlog® & News

Nearby

Air Quality

  Air Quality AQ Index Pollutant
Not available.

Snow Depth

Station Depth Elevation

Earthquake Activity

City Distance Mag. Time & Date
Minimum magnitude displayed is 2.5.

Coastal Water Temperatures

Place Temperature

Stations

Nearby Weather Stations

Station Location Temp. Windchill Dew Point Humidity Wind Precip. Elev Updated Type
                   

Watches & Warnings

There are currently no watches in effect.